PWSweather.com
Personal Weather Stations
Station Observations
WD4JKH
Forsyth, GA 31029

Forsyth, GA 31029

Lat: 33.033225, Lon: -83.927995

Elevation: 709

Station Type: Davis Vantage VUE

High Low Average
Temperature 58.6°F14.8°C 57.6°F14.2°C 58.2°F14.6°C
Dew Point 57.5°F14.2°C 55.7°F13.2°C 56.8°F13.8°C
Winds 2.9 mph 4.7 kmh Calm Calm 1.0 mph SW1.6 kmh SW
Wind Gusts 7.0 mph11.3 kmh 2.0 mph3.2 kmh 5.0 mph8.0 kmh
Humidity 97% 92% 95%
Pressure 30.01 in1016.3 mb 29.95 in1014.2 mb -
Precipitation 0.00 in0.0 mm - -
Hour Temp Dew Point Humidity Winds Wind Gusts Pressure Precip Precip Rate Daily Precip Total
12:03 AM 58.4°F14.7°C 56.0°F13.3°C 92% 1.4 mph SW2.3 kmh SW 4.0 mph6.4 kmh 30.01 in1016.3 mb 0.00 in0.0 mm 0.00 in0.0 mm 0.00 in0.0 mm
12:08 AM 58.5°F14.7°C 56.1°F13.4°C 92% 1.0 mph SSW1.6 kmh SSW 4.0 mph6.4 kmh 30.01 in1016.3 mb 0.00 in0.0 mm 0.00 in0.0 mm 0.00 in0.0 mm
12:13 AM 58.4°F14.7°C 56.0°F13.3°C 92% 1.3 mph SW2.1 kmh SW 4.0 mph6.4 kmh 30.01 in1016.3 mb 0.00 in0.0 mm 0.00 in0.0 mm 0.00 in0.0 mm
12:18 AM 58.3°F14.6°C 55.9°F13.3°C 92% 1.5 mph SW2.4 kmh SW 4.0 mph6.4 kmh 30.01 in1016.3 mb 0.00 in0.0 mm 0.00 in0.0 mm 0.00 in0.0 mm
12:23 AM 58.3°F14.6°C 55.9°F13.3°C 92% 1.0 mph SW1.6 kmh SW 3.0 mph4.8 kmh 30.00 in1015.9 mb 0.00 in0.0 mm 0.00 in0.0 mm 0.00 in0.0 mm
12:28 AM 58.2°F14.6°C 55.8°F13.2°C 92% 1.5 mph SW2.4 kmh SW 2.0 mph3.2 kmh 30.00 in1015.9 mb 0.00 in0.0 mm 0.00 in0.0 mm 0.00 in0.0 mm
12:33 AM 58.1°F14.5°C 56.0°F13.3°C 93% 1.0 mph SW1.6 kmh SW 3.0 mph4.8 kmh 30.00 in1015.9 mb 0.00 in0.0 mm 0.00 in0.0 mm 0.00 in0.0 mm
12:38 AM 58.1°F14.5°C 56.0°F13.3°C 93% 1.3 mph SW2.1 kmh SW 3.0 mph4.8 kmh 30.00 in1015.9 mb 0.00 in0.0 mm 0.00 in0.0 mm 0.00 in0.0 mm
12:43 AM 58.1°F14.5°C 56.0°F13.3°C 93% 1.3 mph SW2.1 kmh SW 3.0 mph4.8 kmh 30.00 in1015.9 mb 0.00 in0.0 mm 0.00 in0.0 mm 0.00 in0.0 mm
12:48 AM 58.0°F14.4°C 55.9°F13.3°C 93% Calm Calm 3.0 mph4.8 kmh 30.00 in1015.9 mb 0.00 in0.0 mm 0.00 in0.0 mm 0.00 in0.0 mm
12:53 AM 57.9°F14.4°C 55.8°F13.2°C 93% 1.0 mph SW1.6 kmh SW 3.0 mph4.8 kmh 30.00 in1015.9 mb 0.00 in0.0 mm 0.00 in0.0 mm 0.00 in0.0 mm
12:58 AM 57.9°F14.4°C 55.8°F13.2°C 93% 1.1 mph SW1.8 kmh SW 3.0 mph4.8 kmh 30.00 in1015.9 mb 0.00 in0.0 mm 0.00 in0.0 mm 0.00 in0.0 mm
01:03 AM 57.9°F14.4°C 55.8°F13.2°C 93% 1.0 mph SW1.6 kmh SW 3.0 mph4.8 kmh 30.00 in1015.9 mb 0.00 in0.0 mm 0.00 in0.0 mm 0.00 in0.0 mm
01:08 AM 57.8°F14.3°C 55.7°F13.2°C 93% Calm Calm 3.0 mph4.8 kmh 30.00 in1015.9 mb 0.00 in0.0 mm 0.00 in0.0 mm 0.00 in0.0 mm
01:13 AM 57.7°F14.3°C 55.7°F13.2°C 93% 1.5 mph SW2.4 kmh SW 3.0 mph4.8 kmh 30.00 in1015.9 mb 0.00 in0.0 mm 0.00 in0.0 mm 0.00 in0.0 mm
01:18 AM 57.7°F14.3°C 55.9°F13.3°C 94% 1.8 mph SW2.9 kmh SW 3.0 mph4.8 kmh 29.99 in1015.6 mb 0.00 in0.0 mm 0.00 in0.0 mm 0.00 in0.0 mm
01:23 AM 57.7°F14.3°C 55.9°F13.3°C 94% 1.0 mph SW1.6 kmh SW 3.0 mph4.8 kmh 29.99 in1015.6 mb 0.00 in0.0 mm 0.00 in0.0 mm 0.00 in0.0 mm
01:28 AM 57.6°F14.2°C 55.8°F13.2°C 94% 2.0 mph SSW3.2 kmh SSW 5.0 mph8.0 kmh 29.99 in1015.6 mb 0.00 in0.0 mm 0.00 in0.0 mm 0.00 in0.0 mm
01:33 AM 57.7°F14.3°C 55.9°F13.3°C 94% 1.5 mph SW2.4 kmh SW 5.0 mph8.0 kmh 29.99 in1015.6 mb 0.00 in0.0 mm 0.00 in0.0 mm 0.00 in0.0 mm
01:38 AM 57.7°F14.3°C 55.9°F13.3°C 94% 1.6 mph SSW2.6 kmh SSW 5.0 mph8.0 kmh 29.99 in1015.6 mb 0.00 in0.0 mm 0.00 in0.0 mm 0.00 in0.0 mm
01:43 AM 57.8°F14.3°C 56.0°F13.3°C 94% 2.0 mph SW3.2 kmh SW 5.0 mph8.0 kmh 29.99 in1015.6 mb 0.00 in0.0 mm 0.00 in0.0 mm 0.00 in0.0 mm
01:48 AM 58.0°F14.4°C 56.2°F13.4°C 94% 2.0 mph SW3.2 kmh SW 5.0 mph8.0 kmh 29.99 in1015.6 mb 0.00 in0.0 mm 0.00 in0.0 mm 0.00 in0.0 mm
01:53 AM 58.2°F14.6°C 56.4°F13.6°C 94% 1.4 mph SW2.3 kmh SW 5.0 mph8.0 kmh 29.99 in1015.6 mb 0.00 in0.0 mm 0.00 in0.0 mm 0.00 in0.0 mm
01:58 AM 58.3°F14.6°C 56.5°F13.6°C 94% 1.7 mph SW2.7 kmh SW 5.0 mph8.0 kmh 29.99 in1015.6 mb 0.00 in0.0 mm 0.00 in0.0 mm 0.00 in0.0 mm
02:03 AM 58.4°F14.7°C 56.6°F13.7°C 94% 1.7 mph SW2.7 kmh SW 5.0 mph8.0 kmh 29.99 in1015.6 mb 0.00 in0.0 mm 0.00 in0.0 mm 0.00 in0.0 mm
02:08 AM 58.4°F14.7°C 56.6°F13.7°C 94% 2.2 mph SW3.5 kmh SW 5.0 mph8.0 kmh 29.99 in1015.6 mb 0.00 in0.0 mm 0.00 in0.0 mm 0.00 in0.0 mm
02:13 AM 58.5°F14.7°C 56.7°F13.7°C 94% 2.2 mph SW3.5 kmh SW 5.0 mph8.0 kmh 30.00 in1015.9 mb 0.00 in0.0 mm 0.00 in0.0 mm 0.00 in0.0 mm
02:18 AM 58.6°F14.8°C 56.8°F13.8°C 94% 1.6 mph SW2.6 kmh SW 6.0 mph9.7 kmh 30.00 in1015.9 mb 0.00 in0.0 mm 0.00 in0.0 mm 0.00 in0.0 mm
02:23 AM 58.6°F14.8°C 56.8°F13.8°C 94% 1.1 mph SW1.8 kmh SW 6.0 mph9.7 kmh 29.99 in1015.6 mb 0.00 in0.0 mm 0.00 in0.0 mm 0.00 in0.0 mm
02:28 AM 58.6°F14.8°C 56.8°F13.8°C 94% 1.1 mph SW1.8 kmh SW 6.0 mph9.7 kmh 30.00 in1015.9 mb 0.00 in0.0 mm 0.00 in0.0 mm 0.00 in0.0 mm
02:32 AM 58.6°F14.8°C 56.8°F13.8°C 94% 1.4 mph SW2.3 kmh SW 6.0 mph9.7 kmh 29.99 in1015.6 mb 0.00 in0.0 mm 0.00 in0.0 mm 0.00 in0.0 mm
02:37 AM 58.6°F14.8°C 56.8°F13.8°C 94% 1.0 mph SW1.6 kmh SW 4.0 mph6.4 kmh 29.99 in1015.6 mb 0.00 in0.0 mm 0.00 in0.0 mm 0.00 in0.0 mm
02:42 AM 58.4°F14.7°C 56.6°F13.7°C 94% 1.0 mph SW1.6 kmh SW 3.0 mph4.8 kmh 29.98 in1015.2 mb 0.00 in0.0 mm 0.00 in0.0 mm 0.00 in0.0 mm
02:47 AM 58.3°F14.6°C 56.5°F13.6°C 94% 1.5 mph SW2.4 kmh SW 3.0 mph4.8 kmh 29.98 in1015.2 mb 0.00 in0.0 mm 0.00 in0.0 mm 0.00 in0.0 mm
02:52 AM 58.3°F14.6°C 56.8°F13.8°C 95% 1.5 mph SSW2.4 kmh SSW 3.0 mph4.8 kmh 29.98 in1015.2 mb 0.00 in0.0 mm 0.00 in0.0 mm 0.00 in0.0 mm
02:57 AM 58.3°F14.6°C 56.8°F13.8°C 95% 2.8 mph SW4.5 kmh SW 6.0 mph9.7 kmh 29.99 in1015.6 mb 0.00 in0.0 mm 0.00 in0.0 mm 0.00 in0.0 mm
03:02 AM 58.4°F14.7°C 56.9°F13.8°C 95% 1.7 mph SW2.7 kmh SW 6.0 mph9.7 kmh 29.99 in1015.6 mb 0.00 in0.0 mm 0.00 in0.0 mm 0.00 in0.0 mm
03:07 AM 58.4°F14.7°C 56.9°F13.8°C 95% 2.5 mph SW4.0 kmh SW 6.0 mph9.7 kmh 29.99 in1015.6 mb 0.00 in0.0 mm 0.00 in0.0 mm 0.00 in0.0 mm
03:12 AM 58.4°F14.7°C 56.9°F13.8°C 95% 1.0 mph S1.6 kmh S 6.0 mph9.7 kmh 29.99 in1015.6 mb 0.00 in0.0 mm 0.00 in0.0 mm 0.00 in0.0 mm
03:17 AM 58.5°F14.7°C 57.0°F13.9°C 95% 2.0 mph SW3.2 kmh SW 6.0 mph9.7 kmh 29.99 in1015.6 mb 0.00 in0.0 mm 0.00 in0.0 mm 0.00 in0.0 mm
03:22 AM 58.5°F14.7°C 57.0°F13.9°C 95% 2.5 mph SW4.0 kmh SW 6.0 mph9.7 kmh 30.00 in1015.9 mb 0.00 in0.0 mm 0.00 in0.0 mm 0.00 in0.0 mm
03:27 AM 58.5°F14.7°C 57.0°F13.9°C 95% 1.7 mph SW2.7 kmh SW 6.0 mph9.7 kmh 29.99 in1015.6 mb 0.00 in0.0 mm 0.00 in0.0 mm 0.00 in0.0 mm
03:32 AM 58.4°F14.7°C 57.0°F13.9°C 95% 1.8 mph SW2.9 kmh SW 6.0 mph9.7 kmh 29.99 in1015.6 mb 0.00 in0.0 mm 0.00 in0.0 mm 0.00 in0.0 mm
03:37 AM 58.4°F14.7°C 57.0°F13.9°C 95% 2.2 mph SW3.5 kmh SW 5.0 mph8.0 kmh 29.98 in1015.2 mb 0.00 in0.0 mm 0.00 in0.0 mm 0.00 in0.0 mm
03:42 AM 58.4°F14.7°C 57.3°F14.1°C 96% 2.9 mph SW4.7 kmh SW 6.0 mph9.7 kmh 29.98 in1015.2 mb 0.00 in0.0 mm 0.00 in0.0 mm 0.00 in0.0 mm
03:47 AM 58.4°F14.7°C 57.3°F14.1°C 96% 2.2 mph SW3.5 kmh SW 6.0 mph9.7 kmh 29.98 in1015.2 mb 0.00 in0.0 mm 0.00 in0.0 mm 0.00 in0.0 mm
03:52 AM 58.4°F14.7°C 57.3°F14.1°C 96% 2.2 mph SW3.5 kmh SW 6.0 mph9.7 kmh 29.98 in1015.2 mb 0.00 in0.0 mm 0.00 in0.0 mm 0.00 in0.0 mm
03:57 AM 58.5°F14.7°C 57.4°F14.1°C 96% 2.4 mph SW3.9 kmh SW 7.0 mph11.3 kmh 29.98 in1015.2 mb 0.00 in0.0 mm 0.00 in0.0 mm 0.00 in0.0 mm
04:02 AM 58.6°F14.8°C 57.5°F14.2°C 96% 2.0 mph SW3.2 kmh SW 7.0 mph11.3 kmh 29.97 in1014.9 mb 0.00 in0.0 mm 0.00 in0.0 mm 0.00 in0.0 mm
04:07 AM 58.6°F14.8°C 57.5°F14.2°C 96% 2.0 mph SW3.2 kmh SW 7.0 mph11.3 kmh 29.97 in1014.9 mb 0.00 in0.0 mm 0.00 in0.0 mm 0.00 in0.0 mm
04:12 AM 58.6°F14.8°C 57.5°F14.2°C 96% 1.8 mph SW2.9 kmh SW 7.0 mph11.3 kmh 29.97 in1014.9 mb 0.00 in0.0 mm 0.00 in0.0 mm 0.00 in0.0 mm
04:17 AM 58.5°F14.7°C 57.4°F14.1°C 96% 1.2 mph SW1.9 kmh SW 5.0 mph8.0 kmh 29.97 in1014.9 mb 0.00 in0.0 mm 0.00 in0.0 mm 0.00 in0.0 mm
04:22 AM 58.5°F14.7°C 57.4°F14.1°C 96% 1.7 mph SW2.7 kmh SW 4.0 mph6.4 kmh 29.98 in1015.2 mb 0.00 in0.0 mm 0.00 in0.0 mm 0.00 in0.0 mm
04:27 AM 58.4°F14.7°C 57.3°F14.1°C 96% 2.1 mph SW3.4 kmh SW 4.0 mph6.4 kmh 29.97 in1014.9 mb 0.00 in0.0 mm 0.00 in0.0 mm 0.00 in0.0 mm
04:32 AM 58.4°F14.7°C 57.3°F14.1°C 96% 1.5 mph SW2.4 kmh SW 5.0 mph8.0 kmh 29.98 in1015.2 mb 0.00 in0.0 mm 0.00 in0.0 mm 0.00 in0.0 mm
04:37 AM 58.4°F14.7°C 57.2°F14.0°C 96% 1.0 mph SSW1.6 kmh SSW 5.0 mph8.0 kmh 29.98 in1015.2 mb 0.00 in0.0 mm 0.00 in0.0 mm 0.00 in0.0 mm
04:42 AM 58.3°F14.6°C 57.2°F14.0°C 96% 1.0 mph SW1.6 kmh SW 5.0 mph8.0 kmh 29.97 in1014.9 mb 0.00 in0.0 mm 0.00 in0.0 mm 0.00 in0.0 mm
04:47 AM 58.4°F14.7°C 57.3°F14.1°C 96% 1.0 mph SSE1.6 kmh SSE 6.0 mph9.7 kmh 29.97 in1014.9 mb 0.00 in0.0 mm 0.00 in0.0 mm 0.00 in0.0 mm
04:52 AM 58.4°F14.7°C 57.3°F14.1°C 96% 1.9 mph S3.1 kmh S 6.0 mph9.7 kmh 29.97 in1014.9 mb 0.00 in0.0 mm 0.00 in0.0 mm 0.00 in0.0 mm
04:57 AM 58.4°F14.7°C 57.2°F14.0°C 96% 1.0 mph SW1.6 kmh SW 6.0 mph9.7 kmh 29.96 in1014.6 mb 0.00 in0.0 mm 0.00 in0.0 mm 0.00 in0.0 mm
05:02 AM 58.4°F14.7°C 57.2°F14.0°C 96% 1.0 mph SW1.6 kmh SW 6.0 mph9.7 kmh 29.96 in1014.6 mb 0.00 in0.0 mm 0.00 in0.0 mm 0.00 in0.0 mm
05:07 AM 58.4°F14.7°C 57.2°F14.0°C 96% 1.3 mph SW2.1 kmh SW 4.0 mph6.4 kmh 29.95 in1014.2 mb 0.00 in0.0 mm 0.00 in0.0 mm 0.00 in0.0 mm
05:12 AM 58.3°F14.6°C 57.1°F13.9°C 96% Calm Calm 2.0 mph3.2 kmh 29.95 in1014.2 mb 0.00 in0.0 mm 0.00 in0.0 mm 0.00 in0.0 mm
05:17 AM 58.3°F14.6°C 57.1°F13.9°C 96% 1.4 mph SSW2.3 kmh SSW 3.0 mph4.8 kmh 29.96 in1014.6 mb 0.00 in0.0 mm 0.00 in0.0 mm 0.00 in0.0 mm
05:22 AM 58.3°F14.6°C 57.1°F13.9°C 96% 1.0 mph SSW1.6 kmh SSW 4.0 mph6.4 kmh 29.96 in1014.6 mb 0.00 in0.0 mm 0.00 in0.0 mm 0.00 in0.0 mm
05:27 AM 58.2°F14.6°C 57.0°F13.9°C 96% 2.6 mph SW4.2 kmh SW 5.0 mph8.0 kmh 29.96 in1014.6 mb 0.00 in0.0 mm 0.00 in0.0 mm 0.00 in0.0 mm
05:32 AM 58.2°F14.6°C 57.3°F14.1°C 97% 1.5 mph SW2.4 kmh SW 5.0 mph8.0 kmh 29.96 in1014.6 mb 0.00 in0.0 mm 0.00 in0.0 mm 0.00 in0.0 mm
05:37 AM 58.2°F14.6°C 57.3°F14.1°C 97% 2.2 mph SW3.5 kmh SW 5.0 mph8.0 kmh 29.96 in1014.6 mb 0.00 in0.0 mm 0.00 in0.0 mm 0.00 in0.0 mm
05:42 AM 58.1°F14.5°C 57.2°F14.0°C 97% 1.2 mph SW1.9 kmh SW 5.0 mph8.0 kmh 29.96 in1014.6 mb 0.00 in0.0 mm 0.00 in0.0 mm 0.00 in0.0 mm
05:47 AM 58.0°F14.4°C 57.1°F13.9°C 97% 1.0 mph SSW1.6 kmh SSW 5.0 mph8.0 kmh 29.95 in1014.2 mb 0.00 in0.0 mm 0.00 in0.0 mm 0.00 in0.0 mm
05:52 AM 58.0°F14.4°C 57.1°F13.9°C 97% 1.4 mph SW2.3 kmh SW 5.0 mph8.0 kmh 29.95 in1014.2 mb 0.00 in0.0 mm 0.00 in0.0 mm 0.00 in0.0 mm
05:57 AM 58.0°F14.4°C 57.1°F13.9°C 97% 1.0 mph SSW1.6 kmh SSW 3.0 mph4.8 kmh 29.95 in1014.2 mb 0.00 in0.0 mm 0.00 in0.0 mm 0.00 in0.0 mm
06:02 AM 58.0°F14.4°C 57.1°F13.9°C 97% 1.0 mph SW1.6 kmh SW 4.0 mph6.4 kmh 29.96 in1014.6 mb 0.00 in0.0 mm 0.00 in0.0 mm 0.00 in0.0 mm
06:07 AM 58.0°F14.4°C 57.1°F13.9°C 97% 1.0 mph SW1.6 kmh SW 4.0 mph6.4 kmh 29.95 in1014.2 mb 0.00 in0.0 mm 0.00 in0.0 mm 0.00 in0.0 mm
06:12 AM 58.0°F14.4°C 57.1°F13.9°C 97% 1.7 mph SW2.7 kmh SW 4.0 mph6.4 kmh 29.96 in1014.6 mb 0.00 in0.0 mm 0.00 in0.0 mm 0.00 in0.0 mm
06:17 AM 58.0°F14.4°C 57.1°F13.9°C 97% 1.0 mph SW1.6 kmh SW 4.0 mph6.4 kmh 29.96 in1014.6 mb 0.00 in0.0 mm 0.00 in0.0 mm 0.00 in0.0 mm
06:22 AM 58.0°F14.4°C 57.1°F13.9°C 97% 1.7 mph SSW2.7 kmh SSW 4.0 mph6.4 kmh 29.96 in1014.6 mb 0.00 in0.0 mm 0.00 in0.0 mm 0.00 in0.0 mm
06:27 AM 57.9°F14.4°C 57.0°F13.9°C 97% 1.0 mph SW1.6 kmh SW 4.0 mph6.4 kmh 29.96 in1014.6 mb 0.00 in0.0 mm 0.00 in0.0 mm 0.00 in0.0 mm
06:32 AM 57.9°F14.4°C 57.0°F13.9°C 97% 1.2 mph SSW1.9 kmh SSW 4.0 mph6.4 kmh 29.95 in1014.2 mb 0.00 in0.0 mm 0.00 in0.0 mm 0.00 in0.0 mm
06:37 AM 58.0°F14.4°C 57.1°F13.9°C 97% 1.3 mph SSW2.1 kmh SSW 5.0 mph8.0 kmh 29.95 in1014.2 mb 0.00 in0.0 mm 0.00 in0.0 mm 0.00 in0.0 mm
06:42 AM 58.0°F14.4°C 57.1°F13.9°C 97% 1.0 mph S1.6 kmh S 5.0 mph8.0 kmh 29.95 in1014.2 mb 0.00 in0.0 mm 0.00 in0.0 mm 0.00 in0.0 mm
06:47 AM 58.0°F14.4°C 57.1°F13.9°C 97% 1.8 mph S2.9 kmh S 5.0 mph8.0 kmh 29.95 in1014.2 mb 0.00 in0.0 mm 0.00 in0.0 mm 0.00 in0.0 mm
06:52 AM 58.0°F14.4°C 57.1°F13.9°C 97% Calm Calm 5.0 mph8.0 kmh 29.95 in1014.2 mb 0.00 in0.0 mm 0.00 in0.0 mm 0.00 in0.0 mm
06:57 AM 58.0°F14.4°C 57.1°F13.9°C 97% 1.8 mph SSW2.9 kmh SSW 5.0 mph8.0 kmh 29.95 in1014.2 mb 0.00 in0.0 mm 0.00 in0.0 mm 0.00 in0.0 mm
07:02 AM 58.1°F14.5°C 57.2°F14.0°C 97% 1.7 mph SW2.7 kmh SW 5.0 mph8.0 kmh 29.95 in1014.2 mb 0.00 in0.0 mm 0.00 in0.0 mm 0.00 in0.0 mm
07:07 AM 58.2°F14.6°C 57.3°F14.1°C 97% 1.2 mph S1.9 kmh S 5.0 mph8.0 kmh 29.95 in1014.2 mb 0.00 in0.0 mm 0.00 in0.0 mm 0.00 in0.0 mm
07:12 AM 58.2°F14.6°C 57.3°F14.1°C 97% 1.1 mph SSW1.8 kmh SSW 5.0 mph8.0 kmh 29.95 in1014.2 mb 0.00 in0.0 mm 0.00 in0.0 mm 0.00 in0.0 mm
07:18 AM 58.4°F14.7°C 57.5°F14.2°C 97% 1.5 mph SSW2.4 kmh SSW 5.0 mph8.0 kmh 29.95 in1014.2 mb 0.00 in0.0 mm 0.00 in0.0 mm 0.00 in0.0 mm
07:23 AM 58.5°F14.7°C 57.6°F14.2°C 97% 1.0 mph SW1.6 kmh SW 6.0 mph9.7 kmh 29.95 in1014.2 mb 0.00 in0.0 mm 0.00 in0.0 mm 0.00 in0.0 mm
07:28 AM 58.6°F14.8°C 57.7°F14.3°C 97% 1.2 mph SE1.9 kmh SE 6.0 mph9.7 kmh 29.95 in1014.2 mb 0.00 in0.0 mm 0.00 in0.0 mm 0.00 in0.0 mm
07:32 AM 58.7°F14.8°C 58.1°F14.5°C 98% 1.5 mph SSW2.4 kmh SSW 6.0 mph9.7 kmh 29.95 in1014.2 mb 0.00 in0.0 mm 0.00 in0.0 mm 0.00 in0.0 mm
07:37 AM 58.8°F14.9°C 58.2°F14.6°C 98% 1.4 mph S2.3 kmh S 5.0 mph8.0 kmh 29.95 in1014.2 mb 0.01 in0.3 mm 0.12 in3.0 mm 0.01 in0.3 mm
07:43 AM 59.0°F15.0°C 58.4°F14.7°C 98% 1.4 mph SW2.3 kmh SW 5.0 mph8.0 kmh 29.96 in1014.6 mb 0.01 in0.3 mm 0.00 in0.0 mm 0.01 in0.3 mm
07:48 AM 59.0°F15.0°C 58.4°F14.7°C 98% 1.6 mph SSW2.6 kmh SSW 5.0 mph8.0 kmh 29.95 in1014.2 mb 0.01 in0.3 mm 0.00 in0.0 mm 0.01 in0.3 mm
07:53 AM 59.2°F15.1°C 58.6°F14.8°C 98% 2.1 mph SW3.4 kmh SW 5.0 mph8.0 kmh 29.95 in1014.2 mb 0.01 in0.3 mm 0.00 in0.0 mm 0.01 in0.3 mm
07:58 AM 59.2°F15.1°C 58.6°F14.8°C 98% 1.9 mph SW3.1 kmh SW 7.0 mph11.3 kmh 29.95 in1014.2 mb 0.01 in0.3 mm 0.00 in0.0 mm 0.01 in0.3 mm
08:03 AM 59.3°F15.2°C 58.7°F14.8°C 98% 1.9 mph SW3.1 kmh SW 7.0 mph11.3 kmh 29.95 in1014.2 mb 0.01 in0.3 mm 0.00 in0.0 mm 0.01 in0.3 mm
08:09 AM 59.4°F15.2°C 58.8°F14.9°C 98% 1.4 mph S2.3 kmh S 7.0 mph11.3 kmh 29.95 in1014.2 mb 0.01 in0.3 mm 0.00 in0.0 mm 0.01 in0.3 mm
08:14 AM 59.5°F15.3°C 58.9°F14.9°C 98% 2.4 mph SW3.9 kmh SW 7.0 mph11.3 kmh 29.95 in1014.2 mb 0.01 in0.3 mm 0.00 in0.0 mm 0.01 in0.3 mm
08:19 AM 59.6°F15.3°C 59.0°F15.0°C 98% 1.8 mph SW2.9 kmh SW 6.0 mph9.7 kmh 29.96 in1014.6 mb 0.01 in0.3 mm 0.00 in0.0 mm 0.01 in0.3 mm
08:24 AM 59.7°F15.4°C 59.1°F15.1°C 98% 1.8 mph SSW2.9 kmh SSW 6.0 mph9.7 kmh 29.95 in1014.2 mb 0.01 in0.3 mm 0.00 in0.0 mm 0.01 in0.3 mm
08:30 AM 59.8°F15.4°C 59.2°F15.1°C 98% 1.7 mph S2.7 kmh S 6.0 mph9.7 kmh 29.95 in1014.2 mb 0.01 in0.3 mm 0.00 in0.0 mm 0.01 in0.3 mm
08:35 AM 59.9°F15.5°C 59.3°F15.2°C 98% 1.7 mph S2.7 kmh S 8.0 mph12.9 kmh 29.95 in1014.2 mb 0.00 in0.0 mm 0.00 in0.0 mm 0.01 in0.3 mm
08:40 AM 60.0°F15.6°C 59.4°F15.2°C 98% 1.0 mph WSW1.6 kmh WSW 8.0 mph12.9 kmh 29.95 in1014.2 mb 0.00 in0.0 mm 0.00 in0.0 mm 0.01 in0.3 mm
08:45 AM 60.1°F15.6°C 59.5°F15.3°C 98% 2.6 mph SW4.2 kmh SW 8.0 mph12.9 kmh 29.95 in1014.2 mb 0.00 in0.0 mm 0.00 in0.0 mm 0.01 in0.3 mm
08:50 AM 60.3°F15.7°C 59.7°F15.4°C 98% 1.6 mph SSW2.6 kmh SSW 5.0 mph8.0 kmh 29.95 in1014.2 mb 0.00 in0.0 mm 0.00 in0.0 mm 0.01 in0.3 mm
08:56 AM 60.3°F15.7°C 59.7°F15.4°C 98% 1.8 mph SW2.9 kmh SW 5.0 mph8.0 kmh 29.95 in1014.2 mb 0.00 in0.0 mm 0.00 in0.0 mm 0.01 in0.3 mm
09:01 AM 60.4°F15.8°C 59.8°F15.4°C 98% 1.9 mph S3.1 kmh S 5.0 mph8.0 kmh 29.95 in1014.2 mb 0.00 in0.0 mm 0.00 in0.0 mm 0.01 in0.3 mm
09:06 AM 60.5°F15.8°C 59.9°F15.5°C 98% 1.9 mph SW3.1 kmh SW 5.0 mph8.0 kmh 29.95 in1014.2 mb 0.00 in0.0 mm 0.00 in0.0 mm 0.01 in0.3 mm
09:11 AM 60.6°F15.9°C 60.0°F15.6°C 98% 2.0 mph S3.2 kmh S 6.0 mph9.7 kmh 29.95 in1014.2 mb 0.00 in0.0 mm 0.00 in0.0 mm 0.01 in0.3 mm
09:16 AM 60.7°F15.9°C 60.1°F15.6°C 98% 1.1 mph SW1.8 kmh SW 6.0 mph9.7 kmh 29.95 in1014.2 mb 0.00 in0.0 mm 0.00 in0.0 mm 0.01 in0.3 mm
09:22 AM 60.8°F16.0°C 60.2°F15.7°C 98% 1.2 mph SSW1.9 kmh SSW 6.0 mph9.7 kmh 29.95 in1014.2 mb 0.00 in0.0 mm 0.00 in0.0 mm 0.01 in0.3 mm
09:27 AM 60.9°F16.1°C 60.3°F15.7°C 98% 2.8 mph SW4.5 kmh SW 6.0 mph9.7 kmh 29.96 in1014.6 mb 0.00 in0.0 mm 0.00 in0.0 mm 0.01 in0.3 mm
09:32 AM 61.0°F16.1°C 60.4°F15.8°C 98% 1.0 mph SSW1.6 kmh SSW 7.0 mph11.3 kmh 29.95 in1014.2 mb 0.00 in0.0 mm 0.00 in0.0 mm 0.01 in0.3 mm
09:37 AM 61.1°F16.2°C 60.5°F15.8°C 98% 2.0 mph SW3.2 kmh SW 7.0 mph11.3 kmh 29.96 in1014.6 mb 0.00 in0.0 mm 0.00 in0.0 mm 0.01 in0.3 mm
09:42 AM 61.1°F16.2°C 60.5°F15.8°C 98% 1.5 mph SW2.4 kmh SW 7.0 mph11.3 kmh 29.95 in1014.2 mb 0.00 in0.0 mm 0.00 in0.0 mm 0.01 in0.3 mm
09:48 AM 61.2°F16.2°C 60.6°F15.9°C 98% 1.3 mph SW2.1 kmh SW 5.0 mph8.0 kmh 29.95 in1014.2 mb 0.00 in0.0 mm 0.00 in0.0 mm 0.01 in0.3 mm
09:53 AM 61.3°F16.3°C 60.7°F15.9°C 98% 2.0 mph S3.2 kmh S 5.0 mph8.0 kmh 29.96 in1014.6 mb 0.00 in0.0 mm 0.00 in0.0 mm 0.01 in0.3 mm
09:58 AM 61.3°F16.3°C 60.7°F15.9°C 98% 1.4 mph SW2.3 kmh SW 5.0 mph8.0 kmh 29.95 in1014.2 mb 0.00 in0.0 mm 0.00 in0.0 mm 0.01 in0.3 mm
10:03 AM 61.4°F16.3°C 60.8°F16.0°C 98% 1.3 mph SW2.1 kmh SW 5.0 mph8.0 kmh 29.95 in1014.2 mb 0.00 in0.0 mm 0.00 in0.0 mm 0.01 in0.3 mm
10:08 AM 61.6°F16.4°C 61.0°F16.1°C 98% 1.6 mph SSE2.6 kmh SSE 5.0 mph8.0 kmh 29.95 in1014.2 mb 0.00 in0.0 mm 0.00 in0.0 mm 0.01 in0.3 mm
10:13 AM 61.7°F16.5°C 61.1°F16.2°C 98% 1.7 mph S2.7 kmh S 5.0 mph8.0 kmh 29.94 in1013.9 mb 0.00 in0.0 mm 0.00 in0.0 mm 0.01 in0.3 mm
10:19 AM 61.8°F16.6°C 61.2°F16.2°C 98% 1.2 mph S1.9 kmh S 7.0 mph11.3 kmh 29.94 in1013.9 mb 0.00 in0.0 mm 0.00 in0.0 mm 0.01 in0.3 mm
10:24 AM 61.9°F16.6°C 61.3°F16.3°C 98% 1.7 mph S2.7 kmh S 7.0 mph11.3 kmh 29.94 in1013.9 mb 0.00 in0.0 mm 0.00 in0.0 mm 0.01 in0.3 mm
10:29 AM 62.0°F16.7°C 61.4°F16.3°C 98% 2.0 mph SW3.2 kmh SW 7.0 mph11.3 kmh 29.95 in1014.2 mb 0.00 in0.0 mm 0.00 in0.0 mm 0.01 in0.3 mm
10:34 AM 62.1°F16.7°C 61.5°F16.4°C 98% 1.6 mph S2.6 kmh S 5.0 mph8.0 kmh 29.94 in1013.9 mb 0.00 in0.0 mm 0.00 in0.0 mm 0.01 in0.3 mm
10:40 AM 62.2°F16.8°C 61.6°F16.4°C 98% 2.0 mph S3.2 kmh S 6.0 mph9.7 kmh 29.94 in1013.9 mb 0.00 in0.0 mm 0.00 in0.0 mm 0.01 in0.3 mm
10:45 AM 62.3°F16.8°C 61.7°F16.5°C 98% 2.5 mph S4.0 kmh S 6.0 mph9.7 kmh 29.93 in1013.5 mb 0.00 in0.0 mm 0.00 in0.0 mm 0.01 in0.3 mm
10:50 AM 62.5°F16.9°C 61.9°F16.6°C 98% 1.5 mph SW2.4 kmh SW 6.0 mph9.7 kmh 29.94 in1013.9 mb 0.00 in0.0 mm 0.00 in0.0 mm 0.01 in0.3 mm
10:55 AM 62.6°F17.0°C 62.0°F16.7°C 98% 1.6 mph SW2.6 kmh SW 6.0 mph9.7 kmh 29.93 in1013.5 mb 0.00 in0.0 mm 0.00 in0.0 mm 0.01 in0.3 mm
11:00 AM 62.8°F17.1°C 62.2°F16.8°C 98% 1.4 mph S2.3 kmh S 5.0 mph8.0 kmh 29.93 in1013.5 mb 0.00 in0.0 mm 0.00 in0.0 mm 0.01 in0.3 mm
11:06 AM 62.8°F17.1°C 62.2°F16.8°C 98% 1.8 mph SW2.9 kmh SW 6.0 mph9.7 kmh 29.92 in1013.2 mb 0.00 in0.0 mm 0.00 in0.0 mm 0.01 in0.3 mm
11:11 AM 63.0°F17.2°C 62.4°F16.9°C 98% Calm Calm 6.0 mph9.7 kmh 29.92 in1013.2 mb 0.00 in0.0 mm 0.00 in0.0 mm 0.01 in0.3 mm
11:16 AM 63.0°F17.2°C 62.4°F16.9°C 98% 2.2 mph S3.5 kmh S 8.0 mph12.9 kmh 29.92 in1013.2 mb 0.00 in0.0 mm 0.00 in0.0 mm 0.01 in0.3 mm
11:21 AM 63.2°F17.3°C 62.6°F17.0°C 98% 1.3 mph S2.1 kmh S 8.0 mph12.9 kmh 29.91 in1012.9 mb 0.00 in0.0 mm 0.00 in0.0 mm 0.01 in0.3 mm
11:26 AM 63.3°F17.4°C 62.7°F17.1°C 98% 1.6 mph SSE2.6 kmh SSE 8.0 mph12.9 kmh 29.91 in1012.9 mb 0.00 in0.0 mm 0.00 in0.0 mm 0.01 in0.3 mm
11:32 AM 63.4°F17.4°C 62.8°F17.1°C 98% 1.0 mph SE1.6 kmh SE 8.0 mph12.9 kmh 29.90 in1012.5 mb 0.00 in0.0 mm 0.00 in0.0 mm 0.01 in0.3 mm
11:37 AM 63.6°F17.6°C 63.0°F17.2°C 98% 1.9 mph S3.1 kmh S 4.0 mph6.4 kmh 29.89 in1012.2 mb 0.00 in0.0 mm 0.00 in0.0 mm 0.01 in0.3 mm
11:42 AM 63.8°F17.7°C 63.2°F17.3°C 98% 1.3 mph S2.1 kmh S 4.0 mph6.4 kmh 29.89 in1012.2 mb 0.00 in0.0 mm 0.00 in0.0 mm 0.01 in0.3 mm
11:47 AM 64.0°F17.8°C 63.4°F17.4°C 98% 2.1 mph SSE3.4 kmh SSE 5.0 mph8.0 kmh 29.88 in1011.9 mb 0.00 in0.0 mm 0.00 in0.0 mm 0.01 in0.3 mm
11:52 AM 64.1°F17.8°C 63.2°F17.3°C 97% 1.1 mph SW1.8 kmh SW 5.0 mph8.0 kmh 29.87 in1011.5 mb 0.00 in0.0 mm 0.00 in0.0 mm 0.01 in0.3 mm
11:58 AM 64.2°F17.9°C 63.3°F17.4°C 97% 1.7 mph SSE2.7 kmh SSE 8.0 mph12.9 kmh 29.86 in1011.2 mb 0.00 in0.0 mm 0.00 in0.0 mm 0.01 in0.3 mm
12:03 PM 64.3°F17.9°C 63.4°F17.4°C 97% 1.6 mph S2.6 kmh S 8.0 mph12.9 kmh 29.86 in1011.2 mb 0.00 in0.0 mm 0.00 in0.0 mm 0.01 in0.3 mm
12:08 PM 64.6°F18.1°C 63.7°F17.6°C 97% 1.5 mph SSW2.4 kmh SSW 8.0 mph12.9 kmh 29.85 in1010.8 mb 0.00 in0.0 mm 0.00 in0.0 mm 0.01 in0.3 mm
12:13 PM 65.0°F18.3°C 63.8°F17.7°C 96% 1.0 mph S1.6 kmh S 8.0 mph12.9 kmh 29.85 in1010.8 mb 0.00 in0.0 mm 0.00 in0.0 mm 0.01 in0.3 mm
12:18 PM 65.3°F18.5°C 64.1°F17.8°C 96% 1.5 mph SW2.4 kmh SW 7.0 mph11.3 kmh 29.84 in1010.5 mb 0.00 in0.0 mm 0.00 in0.0 mm 0.01 in0.3 mm
12:24 PM 65.5°F18.6°C 63.7°F17.6°C 94% 3.2 mph S5.1 kmh S 6.0 mph9.7 kmh 29.84 in1010.5 mb 0.00 in0.0 mm 0.00 in0.0 mm 0.01 in0.3 mm
12:29 PM 65.8°F18.8°C 64.0°F17.8°C 94% 2.2 mph S3.5 kmh S 6.0 mph9.7 kmh 29.84 in1010.5 mb 0.00 in0.0 mm 0.00 in0.0 mm 0.01 in0.3 mm
12:33 PM 66.2°F19.0°C 64.1°F17.8°C 93% 2.4 mph SSW3.9 kmh SSW 6.0 mph9.7 kmh 29.83 in1010.2 mb 0.00 in0.0 mm 0.00 in0.0 mm 0.01 in0.3 mm
12:38 PM 66.5°F19.2°C 64.1°F17.8°C 92% 2.3 mph S3.7 kmh S 9.0 mph14.5 kmh 29.83 in1010.2 mb 0.00 in0.0 mm 0.00 in0.0 mm 0.01 in0.3 mm
12:43 PM 66.8°F19.3°C 64.1°F17.8°C 91% 2.0 mph S3.2 kmh S 12.0 mph19.3 kmh 29.82 in1009.8 mb 0.00 in0.0 mm 0.00 in0.0 mm 0.01 in0.3 mm
12:49 PM 67.0°F19.4°C 63.9°F17.7°C 90% 2.6 mph S4.2 kmh S 15.0 mph24.1 kmh 29.82 in1009.8 mb 0.00 in0.0 mm 0.00 in0.0 mm 0.01 in0.3 mm
12:54 PM 67.1°F19.5°C 63.7°F17.6°C 89% 1.7 mph SSW2.7 kmh SSW 15.0 mph24.1 kmh 29.82 in1009.8 mb 0.00 in0.0 mm 0.00 in0.0 mm 0.01 in0.3 mm
12:59 PM 67.2°F19.6°C 63.5°F17.5°C 88% 4.0 mph SSW6.4 kmh SSW 15.0 mph24.1 kmh 29.82 in1009.8 mb 0.00 in0.0 mm 0.00 in0.0 mm 0.01 in0.3 mm
01:04 PM 67.3°F19.6°C 63.6°F17.6°C 88% 2.2 mph S3.5 kmh S 14.0 mph22.5 kmh 29.82 in1009.8 mb 0.00 in0.0 mm 0.00 in0.0 mm 0.01 in0.3 mm
01:09 PM 67.5°F19.7°C 63.8°F17.7°C 88% 3.5 mph SSW5.6 kmh SSW 14.0 mph22.5 kmh 29.82 in1009.8 mb 0.00 in0.0 mm 0.00 in0.0 mm 0.01 in0.3 mm
01:15 PM 67.6°F19.8°C 63.9°F17.7°C 88% 3.4 mph SW5.5 kmh SW 13.0 mph20.9 kmh 29.82 in1009.8 mb 0.00 in0.0 mm 0.00 in0.0 mm 0.01 in0.3 mm
01:20 PM 67.7°F19.8°C 63.7°F17.6°C 87% 1.8 mph SSW2.9 kmh SSW 13.0 mph20.9 kmh 29.81 in1009.5 mb 0.00 in0.0 mm 0.00 in0.0 mm 0.01 in0.3 mm
01:25 PM 67.8°F19.9°C 63.8°F17.7°C 87% 4.2 mph S6.8 kmh S 13.0 mph20.9 kmh 29.80 in1009.1 mb 0.00 in0.0 mm 0.00 in0.0 mm 0.01 in0.3 mm
01:30 PM 67.9°F19.9°C 63.9°F17.7°C 87% 3.8 mph SSW6.1 kmh SSW 13.0 mph20.9 kmh 29.79 in1008.8 mb 0.00 in0.0 mm 0.00 in0.0 mm 0.01 in0.3 mm
01:35 PM 67.8°F19.9°C 63.8°F17.7°C 87% 2.0 mph S3.2 kmh S 13.0 mph20.9 kmh 29.79 in1008.8 mb 0.00 in0.0 mm 0.00 in0.0 mm 0.01 in0.3 mm
01:41 PM 67.7°F19.8°C 63.7°F17.6°C 87% 2.9 mph SSW4.7 kmh SSW 13.0 mph20.9 kmh 29.79 in1008.8 mb 0.00 in0.0 mm 0.00 in0.0 mm 0.01 in0.3 mm
01:46 PM 67.4°F19.7°C 64.0°F17.8°C 89% 2.8 mph S4.5 kmh S 10.0 mph16.1 kmh 29.78 in1008.5 mb 0.00 in0.0 mm 0.00 in0.0 mm 0.01 in0.3 mm
01:51 PM 67.1°F19.5°C 63.7°F17.6°C 89% 1.9 mph S3.1 kmh S 10.0 mph16.1 kmh 29.78 in1008.5 mb 0.01 in0.3 mm 0.12 in3.0 mm 0.02 in0.5 mm
01:56 PM 66.9°F19.4°C 63.9°F17.7°C 90% 1.8 mph SSW2.9 kmh SSW 9.0 mph14.5 kmh 29.77 in1008.1 mb 0.01 in0.3 mm 0.00 in0.0 mm 0.02 in0.5 mm
02:01 PM 66.7°F19.3°C 63.7°F17.6°C 90% 2.6 mph S4.2 kmh S 11.0 mph17.7 kmh 29.77 in1008.1 mb 0.01 in0.3 mm 0.00 in0.0 mm 0.02 in0.5 mm
02:07 PM 66.6°F19.2°C 63.9°F17.7°C 91% 2.0 mph S3.2 kmh S 11.0 mph17.7 kmh 29.78 in1008.5 mb 0.02 in0.5 mm 0.10 in2.5 mm 0.03 in0.8 mm
02:12 PM 66.5°F19.2°C 64.1°F17.8°C 92% 2.8 mph S4.5 kmh S 11.0 mph17.7 kmh 29.77 in1008.1 mb 0.02 in0.5 mm 0.00 in0.0 mm 0.03 in0.8 mm
02:17 PM 66.5°F19.2°C 64.1°F17.8°C 92% 2.8 mph S4.5 kmh S 11.0 mph17.7 kmh 29.76 in1007.8 mb 0.02 in0.5 mm 0.00 in0.0 mm 0.03 in0.8 mm
02:22 PM 66.5°F19.2°C 64.1°F17.8°C 92% 2.9 mph SSW4.7 kmh SSW 11.0 mph17.7 kmh 29.76 in1007.8 mb 0.02 in0.5 mm 0.00 in0.0 mm 0.03 in0.8 mm
02:27 PM 66.4°F19.1°C 64.0°F17.8°C 92% 2.4 mph SW3.9 kmh SW 11.0 mph17.7 kmh 29.76 in1007.8 mb 0.03 in0.8 mm 0.12 in3.0 mm 0.04 in1.0 mm
02:33 PM 66.3°F19.1°C 63.9°F17.7°C 92% 3.9 mph SW6.3 kmh SW 10.0 mph16.1 kmh 29.76 in1007.8 mb 0.03 in0.8 mm 0.00 in0.0 mm 0.04 in1.0 mm
02:38 PM 66.2°F19.0°C 63.8°F17.7°C 92% 1.7 mph S2.7 kmh S 10.0 mph16.1 kmh 29.76 in1007.8 mb 0.05 in1.3 mm 0.24 in6.1 mm 0.06 in1.5 mm
02:43 PM 66.1°F18.9°C 64.0°F17.8°C 93% 3.4 mph SW5.5 kmh SW 10.0 mph16.1 kmh 29.76 in1007.8 mb 0.06 in1.5 mm 0.12 in3.0 mm 0.07 in1.8 mm
02:48 PM 65.9°F18.8°C 63.8°F17.7°C 93% 3.1 mph SW5.0 kmh SW 11.0 mph17.7 kmh 29.75 in1007.5 mb 0.06 in1.5 mm 0.00 in0.0 mm 0.08 in2.0 mm
02:53 PM 65.8°F18.8°C 64.0°F17.8°C 94% 2.4 mph SW3.9 kmh SW 11.0 mph17.7 kmh 29.75 in1007.5 mb 0.07 in1.8 mm 0.12 in3.0 mm 0.09 in2.3 mm
02:59 PM 65.6°F18.7°C 63.8°F17.7°C 94% 3.2 mph SSW5.1 kmh SSW 11.0 mph17.7 kmh 29.75 in1007.5 mb 0.09 in2.3 mm 0.20 in5.1 mm 0.11 in2.8 mm
03:04 PM 65.5°F18.6°C 64.0°F17.8°C 95% 4.4 mph SW7.1 kmh SW 11.0 mph17.7 kmh 29.75 in1007.5 mb 0.10 in2.5 mm 0.01 in0.3 mm 0.13 in3.3 mm
03:09 PM 65.4°F18.6°C 63.9°F17.7°C 95% 4.6 mph SW7.4 kmh SW 12.0 mph19.3 kmh 29.75 in1007.5 mb 0.11 in2.8 mm 0.12 in3.0 mm 0.15 in3.8 mm
03:14 PM 65.3°F18.5°C 63.8°F17.7°C 95% 3.2 mph SW5.1 kmh SW 13.0 mph20.9 kmh 29.74 in1007.1 mb 0.13 in3.3 mm 0.24 in6.1 mm 0.16 in4.1 mm
03:19 PM 65.3°F18.5°C 63.8°F17.7°C 95% 1.9 mph SSE3.1 kmh SSE 13.0 mph20.9 kmh 29.74 in1007.1 mb 0.13 in3.3 mm 0.00 in0.0 mm 0.16 in4.1 mm
03:25 PM 65.2°F18.4°C 63.7°F17.6°C 95% 3.1 mph SSW5.0 kmh SSW 13.0 mph20.9 kmh 29.74 in1007.1 mb 0.14 in3.6 mm 0.10 in2.5 mm 0.17 in4.3 mm
03:30 PM 65.2°F18.4°C 64.0°F17.8°C 96% 2.8 mph SW4.5 kmh SW 13.0 mph20.9 kmh 29.74 in1007.1 mb 0.14 in3.6 mm 0.00 in0.0 mm 0.18 in4.6 mm
03:35 PM 65.1°F18.4°C 63.9°F17.7°C 96% 1.6 mph S2.6 kmh S 13.0 mph20.9 kmh 29.73 in1006.8 mb 0.15 in3.8 mm 0.12 in3.0 mm 0.20 in5.1 mm
03:40 PM 65.0°F18.3°C 63.8°F17.7°C 96% 5.1 mph SW8.2 kmh SW 13.0 mph20.9 kmh 29.73 in1006.8 mb 0.14 in3.6 mm 0.00 in0.0 mm 0.21 in5.3 mm
03:46 PM 64.9°F18.3°C 63.7°F17.6°C 96% 5.2 mph SW8.4 kmh SW 13.0 mph20.9 kmh 29.73 in1006.8 mb 0.15 in3.8 mm 0.10 in2.5 mm 0.23 in5.8 mm
03:51 PM 64.9°F18.3°C 63.7°F17.6°C 96% 2.4 mph SW3.9 kmh SW 12.0 mph19.3 kmh 29.73 in1006.8 mb 0.18 in4.6 mm 0.36 in9.1 mm 0.27 in6.9 mm
03:56 PM 64.9°F18.3°C 63.7°F17.6°C 96% 5.6 mph SW9.0 kmh SW 12.0 mph19.3 kmh 29.74 in1007.1 mb 0.22 in5.6 mm 0.48 in12.2 mm 0.32 in8.1 mm
04:01 PM 64.8°F18.2°C 63.6°F17.6°C 96% 4.5 mph SW7.2 kmh SW 16.0 mph25.7 kmh 29.74 in1007.1 mb 0.30 in7.6 mm 0.09 in2.3 mm 0.43 in10.9 mm
04:06 PM 64.8°F18.2°C 63.6°F17.6°C 96% 3.5 mph SW5.6 kmh SW 18.0 mph29.0 kmh 29.74 in1007.1 mb 0.37 in9.4 mm 0.84 in21.3 mm 0.51 in13.0 mm
04:12 PM 64.8°F18.2°C 63.9°F17.7°C 97% 5.0 mph SW8.0 kmh SW 18.0 mph29.0 kmh 29.74 in1007.1 mb 0.36 in9.1 mm 0.00 in0.0 mm 0.51 in13.0 mm
04:17 PM 64.7°F18.2°C 63.5°F17.5°C 96% 7.5 mph SW12.1 kmh SW 18.0 mph29.0 kmh 29.74 in1007.1 mb 0.35 in8.9 mm 0.00 in0.0 mm 0.51 in13.0 mm
04:22 PM 64.7°F18.2°C 63.5°F17.5°C 96% 6.6 mph SW10.6 kmh SW 16.0 mph25.7 kmh 29.74 in1007.1 mb 0.35 in8.9 mm 0.00 in0.0 mm 0.51 in13.0 mm
04:27 PM 64.6°F18.1°C 63.4°F17.4°C 96% 4.1 mph SW6.6 kmh SW 16.0 mph25.7 kmh 29.74 in1007.1 mb 0.34 in8.6 mm 0.00 in0.0 mm 0.51 in13.0 mm
04:32 PM 64.4°F18.0°C 62.9°F17.2°C 95% 3.3 mph WSW5.3 kmh WSW 16.0 mph25.7 kmh 29.75 in1007.5 mb 0.32 in8.1 mm 0.00 in0.0 mm 0.51 in13.0 mm
04:38 PM 64.2°F17.9°C 62.4°F16.9°C 94% 4.3 mph SW6.9 kmh SW 16.0 mph25.7 kmh 29.74 in1007.1 mb 0.31 in7.9 mm 0.00 in0.0 mm 0.51 in13.0 mm
04:43 PM 64.2°F17.9°C 62.4°F16.9°C 94% 2.9 mph WSW4.7 kmh WSW 14.0 mph22.5 kmh 29.74 in1007.1 mb 0.29 in7.4 mm 0.00 in0.0 mm 0.51 in13.0 mm
04:48 PM 64.1°F17.8°C 62.3°F16.8°C 94% 4.7 mph WSW7.6 kmh WSW 13.0 mph20.9 kmh 29.74 in1007.1 mb 0.26 in6.6 mm 0.00 in0.0 mm 0.51 in13.0 mm
04:53 PM 64.1°F17.8°C 62.3°F16.8°C 94% 5.0 mph WSW8.0 kmh WSW 13.0 mph20.9 kmh 29.74 in1007.1 mb 0.23 in5.8 mm 0.00 in0.0 mm 0.51 in13.0 mm
04:58 PM 64.1°F17.8°C 62.3°F16.8°C 94% 3.1 mph SW5.0 kmh SW 13.0 mph20.9 kmh 29.73 in1006.8 mb 0.13 in3.3 mm 0.00 in0.0 mm 0.51 in13.0 mm
05:04 PM 64.1°F17.8°C 62.3°F16.8°C 94% 3.6 mph WSW5.8 kmh WSW 11.0 mph17.7 kmh 29.74 in1007.1 mb 0.03 in0.8 mm 0.00 in0.0 mm 0.51 in13.0 mm
05:09 PM 64.1°F17.8°C 62.3°F16.8°C 94% 4.5 mph WSW7.2 kmh WSW 10.0 mph16.1 kmh 29.74 in1007.1 mb 0.00 in0.0 mm 0.00 in0.0 mm 0.51 in13.0 mm
05:14 PM 64.0°F17.8°C 62.5°F16.9°C 95% 3.3 mph SW5.3 kmh SW 9.0 mph14.5 kmh 29.74 in1007.1 mb 0.00 in0.0 mm 0.00 in0.0 mm 0.51 in13.0 mm
05:19 PM 63.9°F17.7°C 62.4°F16.9°C 95% 3.7 mph SW6.0 kmh SW 9.0 mph14.5 kmh 29.74 in1007.1 mb 0.00 in0.0 mm 0.00 in0.0 mm 0.51 in13.0 mm
05:24 PM 63.9°F17.7°C 62.4°F16.9°C 95% 2.8 mph WSW4.5 kmh WSW 9.0 mph14.5 kmh 29.74 in1007.1 mb 0.00 in0.0 mm 0.00 in0.0 mm 0.51 in13.0 mm
05:30 PM 63.8°F17.7°C 62.3°F16.8°C 95% 3.2 mph WSW5.1 kmh WSW 9.0 mph14.5 kmh 29.74 in1007.1 mb 0.00 in0.0 mm 0.00 in0.0 mm 0.51 in13.0 mm
05:35 PM 63.7°F17.6°C 62.2°F16.8°C 95% 2.6 mph WSW4.2 kmh WSW 9.0 mph14.5 kmh 29.74 in1007.1 mb 0.00 in0.0 mm 0.00 in0.0 mm 0.51 in13.0 mm
05:40 PM 63.6°F17.6°C 62.1°F16.7°C 95% 2.4 mph SW3.9 kmh SW 9.0 mph14.5 kmh 29.74 in1007.1 mb 0.00 in0.0 mm 0.00 in0.0 mm 0.51 in13.0 mm
05:45 PM 63.5°F17.5°C 62.0°F16.7°C 95% 4.2 mph WSW6.8 kmh WSW 10.0 mph16.1 kmh 29.75 in1007.5 mb 0.00 in0.0 mm 0.00 in0.0 mm 0.51 in13.0 mm
05:50 PM 63.4°F17.4°C 61.9°F16.6°C 95% 4.0 mph SW6.4 kmh SW 10.0 mph16.1 kmh 29.75 in1007.5 mb 0.00 in0.0 mm 0.00 in0.0 mm 0.51 in13.0 mm
05:56 PM 63.2°F17.3°C 61.7°F16.5°C 95% 3.0 mph SW4.8 kmh SW 10.0 mph16.1 kmh 29.74 in1007.1 mb 0.00 in0.0 mm 0.00 in0.0 mm 0.51 in13.0 mm
06:01 PM 63.1°F17.3°C 61.6°F16.4°C 95% 3.0 mph WSW4.8 kmh WSW 10.0 mph16.1 kmh 29.75 in1007.5 mb 0.00 in0.0 mm 0.00 in0.0 mm 0.51 in13.0 mm
06:06 PM 63.0°F17.2°C 61.5°F16.4°C 95% 3.4 mph WSW5.5 kmh WSW 9.0 mph14.5 kmh 29.75 in1007.5 mb 0.00 in0.0 mm 0.00 in0.0 mm 0.51 in13.0 mm
06:11 PM 62.8°F17.1°C 61.3°F16.3°C 95% 3.6 mph SW5.8 kmh SW 9.0 mph14.5 kmh 29.75 in1007.5 mb 0.00 in0.0 mm 0.00 in0.0 mm 0.51 in13.0 mm
06:16 PM 62.8°F17.1°C 61.3°F16.3°C 95% 4.0 mph WSW6.4 kmh WSW 8.0 mph12.9 kmh 29.75 in1007.5 mb 0.00 in0.0 mm 0.00 in0.0 mm 0.51 in13.0 mm
06:22 PM 62.6°F17.0°C 61.1°F16.2°C 95% 3.1 mph WSW5.0 kmh WSW 8.0 mph12.9 kmh 29.75 in1007.5 mb 0.00 in0.0 mm 0.00 in0.0 mm 0.51 in13.0 mm
06:27 PM 62.5°F16.9°C 60.7°F15.9°C 94% 3.3 mph WSW5.3 kmh WSW 9.0 mph14.5 kmh 29.75 in1007.5 mb 0.00 in0.0 mm 0.00 in0.0 mm 0.51 in13.0 mm
06:31 PM 62.4°F16.9°C 60.6°F15.9°C 94% 3.1 mph WSW5.0 kmh WSW 9.0 mph14.5 kmh 29.75 in1007.5 mb 0.00 in0.0 mm 0.00 in0.0 mm 0.51 in13.0 mm
06:36 PM 62.3°F16.8°C 60.2°F15.7°C 93% 2.1 mph WSW3.4 kmh WSW 9.0 mph14.5 kmh 29.76 in1007.8 mb 0.00 in0.0 mm 0.00 in0.0 mm 0.51 in13.0 mm
06:41 PM 62.1°F16.7°C 60.1°F15.6°C 93% 3.1 mph WSW5.0 kmh WSW 9.0 mph14.5 kmh 29.76 in1007.8 mb 0.00 in0.0 mm 0.00 in0.0 mm 0.51 in13.0 mm
06:46 PM 61.9°F16.6°C 60.2°F15.7°C 94% 3.0 mph SW4.8 kmh SW 9.0 mph14.5 kmh 29.76 in1007.8 mb 0.00 in0.0 mm 0.00 in0.0 mm 0.51 in13.0 mm
06:52 PM 61.7°F16.5°C 60.0°F15.6°C 94% 3.2 mph SW5.1 kmh SW 8.0 mph12.9 kmh 29.76 in1007.8 mb 0.00 in0.0 mm 0.00 in0.0 mm 0.51 in13.0 mm
06:57 PM 61.5°F16.4°C 59.8°F15.4°C 94% 1.6 mph WSW2.6 kmh WSW 8.0 mph12.9 kmh 29.76 in1007.8 mb 0.00 in0.0 mm 0.00 in0.0 mm 0.51 in13.0 mm
07:02 PM 61.4°F16.3°C 59.7°F15.4°C 94% 2.9 mph SW4.7 kmh SW 8.0 mph12.9 kmh 29.76 in1007.8 mb 0.00 in0.0 mm 0.00 in0.0 mm 0.51 in13.0 mm
07:07 PM 61.2°F16.2°C 59.5°F15.3°C 94% 3.0 mph WSW4.8 kmh WSW 6.0 mph9.7 kmh 29.76 in1007.8 mb 0.00 in0.0 mm 0.00 in0.0 mm 0.51 in13.0 mm
07:12 PM 61.0°F16.1°C 59.2°F15.1°C 94% 3.3 mph WSW5.3 kmh WSW 6.0 mph9.7 kmh 29.76 in1007.8 mb 0.00 in0.0 mm 0.00 in0.0 mm 0.51 in13.0 mm
07:18 PM 60.9°F16.1°C 59.1°F15.1°C 94% 2.4 mph WSW3.9 kmh WSW 7.0 mph11.3 kmh 29.77 in1008.1 mb 0.00 in0.0 mm 0.00 in0.0 mm 0.51 in13.0 mm
07:23 PM 60.7°F15.9°C 58.9°F14.9°C 94% 2.0 mph WSW3.2 kmh WSW 7.0 mph11.3 kmh 29.77 in1008.1 mb 0.00 in0.0 mm 0.00 in0.0 mm 0.51 in13.0 mm
07:28 PM 60.6°F15.9°C 58.9°F14.9°C 94% 2.6 mph WSW4.2 kmh WSW 7.0 mph11.3 kmh 29.77 in1008.1 mb 0.00 in0.0 mm 0.00 in0.0 mm 0.51 in13.0 mm
07:33 PM 60.5°F15.8°C 58.5°F14.7°C 93% 2.5 mph W4.0 kmh W 7.0 mph11.3 kmh 29.77 in1008.1 mb 0.00 in0.0 mm 0.00 in0.0 mm 0.51 in13.0 mm
07:38 PM 60.3°F15.7°C 58.3°F14.6°C 93% 2.6 mph W4.2 kmh W 7.0 mph11.3 kmh 29.77 in1008.1 mb 0.00 in0.0 mm 0.00 in0.0 mm 0.51 in13.0 mm
07:44 PM 60.0°F15.6°C 58.0°F14.4°C 93% 3.0 mph W4.8 kmh W 7.0 mph11.3 kmh 29.77 in1008.1 mb 0.00 in0.0 mm 0.00 in0.0 mm 0.51 in13.0 mm
07:49 PM 59.8°F15.4°C 57.8°F14.3°C 93% 7.5 mph W12.1 kmh W 15.0 mph24.1 kmh 29.77 in1008.1 mb 0.00 in0.0 mm 0.00 in0.0 mm 0.51 in13.0 mm
07:54 PM 59.7°F15.4°C 56.8°F13.8°C 90% 5.7 mph W9.2 kmh W 16.0 mph25.7 kmh 29.78 in1008.5 mb 0.00 in0.0 mm 0.00 in0.0 mm 0.51 in13.0 mm
07:59 PM 59.5°F15.3°C 55.9°F13.3°C 88% 4.1 mph W6.6 kmh W 16.0 mph25.7 kmh 29.78 in1008.5 mb 0.00 in0.0 mm 0.00 in0.0 mm 0.51 in13.0 mm
08:04 PM 59.2°F15.1°C 55.3°F12.9°C 87% 5.8 mph W9.3 kmh W 16.0 mph25.7 kmh 29.78 in1008.5 mb 0.00 in0.0 mm 0.00 in0.0 mm 0.51 in13.0 mm
08:10 PM 58.8°F14.9°C 54.6°F12.6°C 86% 5.7 mph W9.2 kmh W 16.0 mph25.7 kmh 29.79 in1008.8 mb 0.00 in0.0 mm 0.00 in0.0 mm 0.51 in13.0 mm
08:15 PM 58.5°F14.7°C 54.0°F12.2°C 85% 2.7 mph W4.3 kmh W 12.0 mph19.3 kmh 29.79 in1008.8 mb 0.00 in0.0 mm 0.00 in0.0 mm 0.51 in13.0 mm
08:20 PM 58.2°F14.6°C 53.7°F12.1°C 85% 5.5 mph W8.9 kmh W 17.0 mph27.4 kmh 29.80 in1009.1 mb 0.00 in0.0 mm 0.00 in0.0 mm 0.51 in13.0 mm
08:25 PM 58.0°F14.4°C 53.2°F11.8°C 84% 4.2 mph W6.8 kmh W 17.0 mph27.4 kmh 29.81 in1009.5 mb 0.00 in0.0 mm 0.00 in0.0 mm 0.51 in13.0 mm
08:30 PM 57.8°F14.3°C 53.0°F11.7°C 84% 7.2 mph W11.6 kmh W 17.0 mph27.4 kmh 29.80 in1009.1 mb 0.00 in0.0 mm 0.00 in0.0 mm 0.51 in13.0 mm
08:36 PM 57.7°F14.3°C 52.9°F11.6°C 84% 4.9 mph W7.9 kmh W 17.0 mph27.4 kmh 29.80 in1009.1 mb 0.00 in0.0 mm 0.00 in0.0 mm 0.51 in13.0 mm
08:41 PM 57.3°F14.1°C 52.5°F11.4°C 84% 3.9 mph W6.3 kmh W 16.0 mph25.7 kmh 29.81 in1009.5 mb 0.00 in0.0 mm 0.00 in0.0 mm 0.51 in13.0 mm
08:46 PM 57.0°F13.9°C 52.5°F11.4°C 85% 3.9 mph WNW6.3 kmh WNW 16.0 mph25.7 kmh 29.81 in1009.5 mb 0.00 in0.0 mm 0.00 in0.0 mm 0.51 in13.0 mm
08:51 PM 56.7°F13.7°C 52.2°F11.2°C 85% 3.8 mph WNW6.1 kmh WNW 12.0 mph19.3 kmh 29.81 in1009.5 mb 0.00 in0.0 mm 0.00 in0.0 mm 0.51 in13.0 mm
08:56 PM 56.3°F13.5°C 51.5°F10.8°C 84% 4.1 mph WNW6.6 kmh WNW 12.0 mph19.3 kmh 29.82 in1009.8 mb 0.00 in0.0 mm 0.00 in0.0 mm 0.51 in13.0 mm
09:02 PM 56.0°F13.3°C 50.9°F10.5°C 83% 4.8 mph WNW7.7 kmh WNW 12.0 mph19.3 kmh 29.82 in1009.8 mb 0.00 in0.0 mm 0.00 in0.0 mm 0.51 in13.0 mm
09:07 PM 55.7°F13.2°C 50.3°F10.2°C 82% 6.1 mph WNW9.8 kmh WNW 14.0 mph22.5 kmh 29.82 in1009.8 mb 0.00 in0.0 mm 0.00 in0.0 mm 0.51 in13.0 mm
09:12 PM 55.3°F12.9°C 49.3°F9.6°C 80% 8.7 mph WNW14.0 kmh WNW 19.0 mph30.6 kmh 29.83 in1010.2 mb 0.00 in0.0 mm 0.00 in0.0 mm 0.51 in13.0 mm
09:17 PM 54.9°F12.7°C 48.6°F9.2°C 79% 8.5 mph WNW13.7 kmh WNW 19.0 mph30.6 kmh 29.83 in1010.2 mb 0.00 in0.0 mm 0.00 in0.0 mm 0.51 in13.0 mm
09:22 PM 54.6°F12.6°C 47.9°F8.8°C 78% 6.8 mph WNW10.9 kmh WNW 19.0 mph30.6 kmh 29.83 in1010.2 mb 0.00 in0.0 mm 0.00 in0.0 mm 0.51 in13.0 mm
09:28 PM 54.4°F12.4°C 47.4°F8.6°C 77% 5.9 mph WNW9.5 kmh WNW 20.0 mph32.2 kmh 29.83 in1010.2 mb 0.00 in0.0 mm 0.00 in0.0 mm 0.51 in13.0 mm
09:33 PM 54.1°F12.3°C 47.1°F8.4°C 77% 7.4 mph WNW11.9 kmh WNW 20.0 mph32.2 kmh 29.84 in1010.5 mb 0.00 in0.0 mm 0.00 in0.0 mm 0.51 in13.0 mm
09:38 PM 53.9°F12.2°C 46.9°F8.3°C 77% 5.6 mph WNW9.0 kmh WNW 20.0 mph32.2 kmh 29.84 in1010.5 mb 0.00 in0.0 mm 0.00 in0.0 mm 0.51 in13.0 mm
09:43 PM 53.8°F12.1°C 46.8°F8.2°C 77% 6.6 mph WNW10.6 kmh WNW 19.0 mph30.6 kmh 29.84 in1010.5 mb 0.00 in0.0 mm 0.00 in0.0 mm 0.51 in13.0 mm
09:48 PM 53.6°F12.0°C 47.0°F8.3°C 78% 4.9 mph WNW7.9 kmh WNW 19.0 mph30.6 kmh 29.84 in1010.5 mb 0.00 in0.0 mm 0.00 in0.0 mm 0.51 in13.0 mm
09:54 PM 53.5°F11.9°C 46.9°F8.3°C 78% 5.7 mph WNW9.2 kmh WNW 19.0 mph30.6 kmh 29.84 in1010.5 mb 0.00 in0.0 mm 0.00 in0.0 mm 0.51 in13.0 mm
09:59 PM 53.2°F11.8°C 46.6°F8.1°C 78% 5.9 mph WNW9.5 kmh WNW 19.0 mph30.6 kmh 29.84 in1010.5 mb 0.00 in0.0 mm 0.00 in0.0 mm 0.51 in13.0 mm
10:04 PM 53.2°F11.8°C 46.6°F8.1°C 78% 4.5 mph W7.2 kmh W 23.0 mph37.0 kmh 29.84 in1010.5 mb 0.00 in0.0 mm 0.00 in0.0 mm 0.51 in13.0 mm
10:09 PM 53.2°F11.8°C 46.9°F8.3°C 79% 4.5 mph WNW7.2 kmh WNW 23.0 mph37.0 kmh 29.84 in1010.5 mb 0.00 in0.0 mm 0.00 in0.0 mm 0.51 in13.0 mm
10:14 PM 53.0°F11.7°C 46.7°F8.2°C 79% 4.7 mph WNW7.6 kmh WNW 23.0 mph37.0 kmh 29.84 in1010.5 mb 0.00 in0.0 mm 0.00 in0.0 mm 0.51 in13.0 mm
10:20 PM 53.0°F11.7°C 46.4°F8.0°C 78% 6.5 mph NW10.5 kmh NW 16.0 mph25.7 kmh 29.84 in1010.5 mb 0.00 in0.0 mm 0.00 in0.0 mm 0.51 in13.0 mm
10:25 PM 52.9°F11.6°C 45.5°F7.5°C 76% 6.5 mph WNW10.5 kmh WNW 18.0 mph29.0 kmh 29.85 in1010.8 mb 0.00 in0.0 mm 0.00 in0.0 mm 0.51 in13.0 mm
10:30 PM 52.8°F11.6°C 45.4°F7.4°C 76% 7.5 mph WNW12.1 kmh WNW 18.0 mph29.0 kmh 29.85 in1010.8 mb 0.00 in0.0 mm 0.00 in0.0 mm 0.51 in13.0 mm
10:35 PM 52.6°F11.4°C 44.9°F7.2°C 75% 9.5 mph WNW15.3 kmh WNW 21.0 mph33.8 kmh 29.85 in1010.8 mb 0.00 in0.0 mm 0.00 in0.0 mm 0.51 in13.0 mm
10:41 PM 52.4°F11.3°C 44.7°F7.1°C 75% 4.9 mph WNW7.9 kmh WNW 21.0 mph33.8 kmh 29.85 in1010.8 mb 0.00 in0.0 mm 0.00 in0.0 mm 0.51 in13.0 mm
10:46 PM 52.2°F11.2°C 44.5°F6.9°C 75% 5.1 mph WNW8.2 kmh WNW 21.0 mph33.8 kmh 29.85 in1010.8 mb 0.00 in0.0 mm 0.00 in0.0 mm 0.51 in13.0 mm
10:51 PM 52.1°F11.2°C 44.2°F6.8°C 74% 6.3 mph WNW10.1 kmh WNW 21.0 mph33.8 kmh 29.85 in1010.8 mb 0.00 in0.0 mm 0.00 in0.0 mm 0.51 in13.0 mm
10:56 PM 51.9°F11.1°C 43.6°F6.4°C 73% 5.1 mph WNW8.2 kmh WNW 19.0 mph30.6 kmh 29.85 in1010.8 mb 0.00 in0.0 mm 0.00 in0.0 mm 0.51 in13.0 mm
11:01 PM 51.6°F10.9°C 43.7°F6.5°C 74% 4.4 mph W7.1 kmh W 19.0 mph30.6 kmh 29.86 in1011.2 mb 0.00 in0.0 mm 0.00 in0.0 mm 0.51 in13.0 mm
11:07 PM 51.4°F10.8°C 43.5°F6.4°C 74% 4.3 mph W6.9 kmh W 19.0 mph30.6 kmh 29.86 in1011.2 mb 0.00 in0.0 mm 0.00 in0.0 mm 0.51 in13.0 mm
11:12 PM 51.2°F10.7°C 43.3°F6.3°C 74% 4.1 mph W6.6 kmh W 19.0 mph30.6 kmh 29.86 in1011.2 mb 0.00 in0.0 mm 0.00 in0.0 mm 0.51 in13.0 mm
11:17 PM 51.2°F10.7°C 43.3°F6.3°C 74% 6.2 mph W10.0 kmh W 14.0 mph22.5 kmh 29.86 in1011.2 mb 0.00 in0.0 mm 0.00 in0.0 mm 0.51 in13.0 mm
11:22 PM 51.0°F10.6°C 43.4°F6.3°C 75% 2.9 mph W4.7 kmh W 14.0 mph22.5 kmh 29.86 in1011.2 mb 0.00 in0.0 mm 0.00 in0.0 mm 0.51 in13.0 mm
11:27 PM 50.8°F10.4°C 43.6°F6.4°C 76% 2.7 mph W4.3 kmh W 14.0 mph22.5 kmh 29.86 in1011.2 mb 0.00 in0.0 mm 0.00 in0.0 mm 0.51 in13.0 mm
11:32 PM 50.7°F10.4°C 43.8°F6.6°C 77% 6.7 mph W10.8 kmh W 15.0 mph24.1 kmh 29.86 in1011.2 mb 0.00 in0.0 mm 0.00 in0.0 mm 0.51 in13.0 mm
11:37 PM 50.6°F10.3°C 43.7°F6.5°C 77% 8.0 mph W12.9 kmh W 18.0 mph29.0 kmh 29.85 in1010.8 mb 0.00 in0.0 mm 0.00 in0.0 mm 0.51 in13.0 mm
11:42 PM 50.5°F10.3°C 43.6°F6.4°C 77% 6.9 mph W11.1 kmh W 18.0 mph29.0 kmh 29.85 in1010.8 mb 0.00 in0.0 mm 0.00 in0.0 mm 0.51 in13.0 mm
11:47 PM 50.4°F10.2°C 43.9°F6.6°C 78% 3.6 mph WNW5.8 kmh WNW 18.0 mph29.0 kmh 29.86 in1011.2 mb 0.00 in0.0 mm 0.00 in0.0 mm 0.51 in13.0 mm
11:52 PM 50.3°F10.2°C 43.8°F6.6°C 78% 3.7 mph W6.0 kmh W 18.0 mph29.0 kmh 29.86 in1011.2 mb 0.00 in0.0 mm 0.00 in0.0 mm 0.51 in13.0 mm
11:58 PM 50.2°F10.1°C 44.0°F6.7°C 79% 3.6 mph WNW5.8 kmh WNW 13.0 mph20.9 kmh 29.86 in1011.2 mb 0.00 in0.0 mm 0.00 in0.0 mm 0.51 in13.0 mm